sensor_id;sensor_type;location;lat;lon;timestamp;P1;durP1;ratioP1;P2;durP2;ratioP2
14241;SDS011;7205;50.864;12.766;2022-08-21T00:00:19;18.60;;;15.83;;
14241;SDS011;7205;50.864;12.766;2022-08-21T00:02:50;19.13;;;16.67;;
14241;SDS011;7205;50.864;12.766;2022-08-21T00:05:19;16.50;;;14.90;;
14241;SDS011;7205;50.864;12.766;2022-08-21T00:07:48;16.73;;;14.73;;
14241;SDS011;7205;50.864;12.766;2022-08-21T00:10:15;17.80;;;16.00;;
14241;SDS011;7205;50.864;12.766;2022-08-21T00:12:43;16.73;;;15.13;;
14241;SDS011;7205;50.864;12.766;2022-08-21T00:15:11;16.80;;;15.20;;
14241;SDS011;7205;50.864;12.766;2022-08-21T00:17:40;17.13;;;15.53;;
14241;SDS011;7205;50.864;12.766;2022-08-21T00:20:08;17.67;;;15.97;;
14241;SDS011;7205;50.864;12.766;2022-08-21T00:22:37;18.70;;;16.50;;
14241;SDS011;7205;50.864;12.766;2022-08-21T00:25:06;17.53;;;15.60;;
14241;SDS011;7205;50.864;12.766;2022-08-21T00:27:34;15.03;;;13.63;;
14241;SDS011;7205;50.864;12.766;2022-08-21T00:30:02;17.10;;;15.30;;
14241;SDS011;7205;50.864;12.766;2022-08-21T00:32:30;17.30;;;15.50;;
14241;SDS011;7205;50.864;12.766;2022-08-21T00:34:57;15.53;;;14.00;;
14241;SDS011;7205;50.864;12.766;2022-08-21T00:37:24;18.73;;;15.57;;
14241;SDS011;7205;50.864;12.766;2022-08-21T00:39:52;19.20;;;15.30;;
14241;SDS011;7205;50.864;12.766;2022-08-21T00:42:21;14.27;;;12.97;;
14241;SDS011;7205;50.864;12.766;2022-08-21T00:44:48;14.93;;;13.53;;
14241;SDS011;7205;50.864;12.766;2022-08-21T00:47:15;16.17;;;14.53;;
14241;SDS011;7205;50.864;12.766;2022-08-21T00:49:43;16.63;;;14.87;;
14241;SDS011;7205;50.864;12.766;2022-08-21T00:52:11;15.27;;;13.77;;
14241;SDS011;7205;50.864;12.766;2022-08-21T00:54:45;16.00;;;14.30;;
14241;SDS011;7205;50.864;12.766;2022-08-21T00:57:14;15.90;;;14.30;;
14241;SDS011;7205;50.864;12.766;2022-08-21T00:59:46;16.77;;;13.77;;
14241;SDS011;7205;50.864;12.766;2022-08-21T01:02:16;16.60;;;14.90;;
14241;SDS011;7205;50.864;12.766;2022-08-21T01:04:43;14.57;;;13.17;;
14241;SDS011;7205;50.864;12.766;2022-08-21T01:07:10;15.50;;;14.10;;
14241;SDS011;7205;50.864;12.766;2022-08-21T01:09:38;15.67;;;14.27;;
14241;SDS011;7205;50.864;12.766;2022-08-21T01:12:05;18.63;;;15.33;;
14241;SDS011;7205;50.864;12.766;2022-08-21T01:14:33;18.10;;;15.70;;
14241;SDS011;7205;50.864;12.766;2022-08-21T01:17:04;18.40;;;16.47;;
14241;SDS011;7205;50.864;12.766;2022-08-21T01:19:32;17.57;;;15.70;;
14241;SDS011;7205;50.864;12.766;2022-08-21T01:22:01;18.00;;;16.17;;
14241;SDS011;7205;50.864;12.766;2022-08-21T01:24:28;19.20;;;17.13;;
14241;SDS011;7205;50.864;12.766;2022-08-21T01:26:56;18.10;;;15.57;;
14241;SDS011;7205;50.864;12.766;2022-08-21T01:29:26;18.50;;;16.50;;
14241;SDS011;7205;50.864;12.766;2022-08-21T01:31:58;20.40;;;18.20;;
14241;SDS011;7205;50.864;12.766;2022-08-21T01:34:26;21.10;;;17.17;;
14241;SDS011;7205;50.864;12.766;2022-08-21T01:36:53;19.87;;;17.73;;
14241;SDS011;7205;50.864;12.766;2022-08-21T01:39:21;20.53;;;18.33;;
14241;SDS011;7205;50.864;12.766;2022-08-21T01:41:48;23.50;;;20.03;;
14241;SDS011;7205;50.864;12.766;2022-08-21T01:44:15;28.90;;;23.50;;
14241;SDS011;7205;50.864;12.766;2022-08-21T01:46:42;25.00;;;20.60;;
14241;SDS011;7205;50.864;12.766;2022-08-21T01:49:09;30.63;;;22.73;;
14241;SDS011;7205;50.864;12.766;2022-08-21T01:51:35;29.43;;;23.37;;
14241;SDS011;7205;50.864;12.766;2022-08-21T01:54:02;33.37;;;25.43;;
14241;SDS011;7205;50.864;12.766;2022-08-21T01:56:31;31.97;;;23.87;;
14241;SDS011;7205;50.864;12.766;2022-08-21T01:59:02;31.83;;;24.50;;
14241;SDS011;7205;50.864;12.766;2022-08-21T02:01:29;31.07;;;24.00;;
14241;SDS011;7205;50.864;12.766;2022-08-21T02:03:56;33.67;;;25.83;;
14241;SDS011;7205;50.864;12.766;2022-08-21T02:06:24;39.37;;;27.63;;
14241;SDS011;7205;50.864;12.766;2022-08-21T02:08:51;35.00;;;26.00;;
14241;SDS011;7205;50.864;12.766;2022-08-21T02:11:19;40.73;;;28.57;;
14241;SDS011;7205;50.864;12.766;2022-08-21T02:14:13;47.67;;;31.27;;
14241;SDS011;7205;50.864;12.766;2022-08-21T02:16:41;45.23;;;30.37;;
14241;SDS011;7205;50.864;12.766;2022-08-21T02:19:09;58.00;;;33.57;;
14241;SDS011;7205;50.864;12.766;2022-08-21T02:21:38;60.30;;;35.80;;
14241;SDS011;7205;50.864;12.766;2022-08-21T02:24:05;59.07;;;35.10;;
14241;SDS011;7205;50.864;12.766;2022-08-21T02:26:32;55.43;;;34.77;;
14241;SDS011;7205;50.864;12.766;2022-08-21T02:28:59;77.43;;;38.40;;
14241;SDS011;7205;50.864;12.766;2022-08-21T02:31:29;70.03;;;37.63;;
14241;SDS011;7205;50.864;12.766;2022-08-21T02:33:56;75.27;;;38.90;;
14241;SDS011;7205;50.864;12.766;2022-08-21T02:36:23;73.03;;;37.90;;
14241;SDS011;7205;50.864;12.766;2022-08-21T02:38:50;60.20;;;36.10;;
14241;SDS011;7205;50.864;12.766;2022-08-21T02:41:18;67.10;;;37.97;;
14241;SDS011;7205;50.864;12.766;2022-08-21T02:43:47;63.13;;;36.53;;
14241;SDS011;7205;50.864;12.766;2022-08-21T02:46:15;56.53;;;35.13;;
14241;SDS011;7205;50.864;12.766;2022-08-21T02:48:44;59.53;;;34.43;;
14241;SDS011;7205;50.864;12.766;2022-08-21T02:51:14;65.53;;;35.87;;
14241;SDS011;7205;50.864;12.766;2022-08-21T02:53:43;57.67;;;35.47;;
14241;SDS011;7205;50.864;12.766;2022-08-21T02:56:13;56.57;;;34.53;;
14241;SDS011;7205;50.864;12.766;2022-08-21T02:58:46;57.87;;;33.77;;
14241;SDS011;7205;50.864;12.766;2022-08-21T03:01:15;55.83;;;34.33;;
14241;SDS011;7205;50.864;12.766;2022-08-21T03:03:43;48.20;;;31.13;;
14241;SDS011;7205;50.864;12.766;2022-08-21T03:06:15;49.67;;;31.33;;
14241;SDS011;7205;50.864;12.766;2022-08-21T03:08:43;45.70;;;30.37;;
14241;SDS011;7205;50.864;12.766;2022-08-21T03:11:11;53.93;;;31.20;;
14241;SDS011;7205;50.864;12.766;2022-08-21T03:13:38;46.07;;;31.07;;
14241;SDS011;7205;50.864;12.766;2022-08-21T03:16:06;47.43;;;30.33;;
14241;SDS011;7205;50.864;12.766;2022-08-21T03:18:33;49.20;;;32.27;;
14241;SDS011;7205;50.864;12.766;2022-08-21T03:21:02;39.37;;;27.63;;
14241;SDS011;7205;50.864;12.766;2022-08-21T03:23:29;50.17;;;31.83;;
14241;SDS011;7205;50.864;12.766;2022-08-21T03:25:57;48.53;;;31.03;;
14241;SDS011;7205;50.864;12.766;2022-08-21T03:28:24;52.67;;;32.30;;
14241;SDS011;7205;50.864;12.766;2022-08-21T03:30:51;48.77;;;30.90;;
14241;SDS011;7205;50.864;12.766;2022-08-21T03:33:19;36.53;;;27.77;;
14241;SDS011;7205;50.864;12.766;2022-08-21T03:35:54;29.70;;;24.63;;
14241;SDS011;7205;50.864;12.766;2022-08-21T03:38:28;39.90;;;28.07;;
14241;SDS011;7205;50.864;12.766;2022-08-21T03:40:57;33.07;;;25.77;;
14241;SDS011;7205;50.864;12.766;2022-08-21T03:43:25;30.07;;;24.17;;
14241;SDS011;7205;50.864;12.766;2022-08-21T03:45:52;30.27;;;24.20;;
14241;SDS011;7205;50.864;12.766;2022-08-21T03:48:19;29.67;;;23.80;;
14241;SDS011;7205;50.864;12.766;2022-08-21T03:50:46;30.43;;;24.80;;
14241;SDS011;7205;50.864;12.766;2022-08-21T03:53:14;32.80;;;25.63;;
14241;SDS011;7205;50.864;12.766;2022-08-21T03:55:43;36.03;;;27.00;;
14241;SDS011;7205;50.864;12.766;2022-08-21T03:58:12;36.57;;;25.90;;
14241;SDS011;7205;50.864;12.766;2022-08-21T04:00:39;33.57;;;26.17;;
14241;SDS011;7205;50.864;12.766;2022-08-21T04:03:06;35.33;;;24.93;;
14241;SDS011;7205;50.864;12.766;2022-08-21T04:05:33;38.37;;;26.67;;
14241;SDS011;7205;50.864;12.766;2022-08-21T04:08:03;35.77;;;25.83;;
14241;SDS011;7205;50.864;12.766;2022-08-21T04:10:32;38.17;;;25.53;;
14241;SDS011;7205;50.864;12.766;2022-08-21T04:13:02;40.03;;;26.17;;
14241;SDS011;7205;50.864;12.766;2022-08-21T04:15:29;33.57;;;23.60;;
14241;SDS011;7205;50.864;12.766;2022-08-21T04:17:57;35.77;;;25.43;;
14241;SDS011;7205;50.864;12.766;2022-08-21T04:20:24;38.07;;;25.50;;
14241;SDS011;7205;50.864;12.766;2022-08-21T04:22:51;32.63;;;24.73;;
14241;SDS011;7205;50.864;12.766;2022-08-21T04:25:19;32.77;;;23.57;;
14241;SDS011;7205;50.864;12.766;2022-08-21T04:27:47;34.03;;;24.57;;
14241;SDS011;7205;50.864;12.766;2022-08-21T04:30:15;37.13;;;25.37;;
14241;SDS011;7205;50.864;12.766;2022-08-21T04:32:43;37.50;;;26.17;;
14241;SDS011;7205;50.864;12.766;2022-08-21T04:35:11;37.73;;;25.60;;
14241;SDS011;7205;50.864;12.766;2022-08-21T04:37:39;35.40;;;25.70;;
14241;SDS011;7205;50.864;12.766;2022-08-21T04:40:06;37.57;;;25.93;;
14241;SDS011;7205;50.864;12.766;2022-08-21T04:42:40;40.37;;;26.73;;
14241;SDS011;7205;50.864;12.766;2022-08-21T04:45:09;33.67;;;25.37;;
14241;SDS011;7205;50.864;12.766;2022-08-21T04:47:37;40.87;;;28.03;;
14241;SDS011;7205;50.864;12.766;2022-08-21T04:50:04;41.07;;;28.23;;
14241;SDS011;7205;50.864;12.766;2022-08-21T04:52:31;51.00;;;30.33;;
14241;SDS011;7205;50.864;12.766;2022-08-21T04:54:58;62.10;;;32.40;;
14241;SDS011;7205;50.864;12.766;2022-08-21T04:57:27;56.80;;;32.50;;
14241;SDS011;7205;50.864;12.766;2022-08-21T04:59:54;43.90;;;29.70;;
14241;SDS011;7205;50.864;12.766;2022-08-21T05:02:21;42.40;;;28.13;;
14241;SDS011;7205;50.864;12.766;2022-08-21T05:04:50;37.23;;;26.07;;
14241;SDS011;7205;50.864;12.766;2022-08-21T05:07:20;42.43;;;29.30;;
14241;SDS011;7205;50.864;12.766;2022-08-21T05:09:49;45.40;;;30.27;;
14241;SDS011;7205;50.864;12.766;2022-08-21T05:12:16;40.27;;;28.30;;
14241;SDS011;7205;50.864;12.766;2022-08-21T05:14:44;38.10;;;27.13;;
14241;SDS011;7205;50.864;12.766;2022-08-21T05:17:11;34.10;;;25.67;;
14241;SDS011;7205;50.864;12.766;2022-08-21T05:19:37;40.17;;;29.00;;
14241;SDS011;7205;50.864;12.766;2022-08-21T05:22:06;37.07;;;26.83;;
14241;SDS011;7205;50.864;12.766;2022-08-21T05:24:34;36.07;;;27.63;;
14241;SDS011;7205;50.864;12.766;2022-08-21T05:27:01;37.57;;;28.47;;
14241;SDS011;7205;50.864;12.766;2022-08-21T05:29:28;33.20;;;25.80;;
14241;SDS011;7205;50.864;12.766;2022-08-21T05:31:56;35.33;;;26.27;;
14241;SDS011;7205;50.864;12.766;2022-08-21T05:34:23;28.07;;;24.07;;
14241;SDS011;7205;50.864;12.766;2022-08-21T05:36:50;28.50;;;23.67;;
14241;SDS011;7205;50.864;12.766;2022-08-21T05:39:18;30.17;;;24.40;;
14241;SDS011;7205;50.864;12.766;2022-08-21T05:41:45;28.73;;;24.87;;
14241;SDS011;7205;50.864;12.766;2022-08-21T05:44:12;27.23;;;23.50;;
14241;SDS011;7205;50.864;12.766;2022-08-21T05:46:40;24.47;;;21.63;;
14241;SDS011;7205;50.864;12.766;2022-08-21T05:49:07;24.30;;;21.20;;
14241;SDS011;7205;50.864;12.766;2022-08-21T05:51:34;23.93;;;21.30;;
14241;SDS011;7205;50.864;12.766;2022-08-21T05:54:01;24.27;;;21.47;;
14241;SDS011;7205;50.864;12.766;2022-08-21T05:56:30;24.27;;;20.93;;
14241;SDS011;7205;50.864;12.766;2022-08-21T05:59:04;23.07;;;20.57;;
14241;SDS011;7205;50.864;12.766;2022-08-21T06:01:38;24.50;;;20.43;;
14241;SDS011;7205;50.864;12.766;2022-08-21T06:04:06;23.13;;;19.67;;
14241;SDS011;7205;50.864;12.766;2022-08-21T06:06:33;20.93;;;18.83;;
14241;SDS011;7205;50.864;12.766;2022-08-21T06:09:00;21.30;;;19.07;;
14241;SDS011;7205;50.864;12.766;2022-08-21T06:11:29;20.53;;;18.47;;
14241;SDS011;7205;50.864;12.766;2022-08-21T06:13:57;21.63;;;18.73;;
14241;SDS011;7205;50.864;12.766;2022-08-21T06:16:25;20.77;;;18.70;;
14241;SDS011;7205;50.864;12.766;2022-08-21T06:18:53;19.07;;;17.00;;
14241;SDS011;7205;50.864;12.766;2022-08-21T06:21:19;19.70;;;17.77;;
14241;SDS011;7205;50.864;12.766;2022-08-21T06:23:47;18.87;;;16.97;;
14241;SDS011;7205;50.864;12.766;2022-08-21T06:26:14;19.50;;;17.43;;
14241;SDS011;7205;50.864;12.766;2022-08-21T06:28:42;18.00;;;16.23;;
14241;SDS011;7205;50.864;12.766;2022-08-21T06:31:10;17.50;;;15.70;;
14241;SDS011;7205;50.864;12.766;2022-08-21T06:33:38;16.23;;;14.53;;
14241;SDS011;7205;50.864;12.766;2022-08-21T06:36:05;17.50;;;15.77;;
14241;SDS011;7205;50.864;12.766;2022-08-21T06:38:33;18.63;;;16.80;;
14241;SDS011;7205;50.864;12.766;2022-08-21T06:41:00;18.63;;;16.83;;
14241;SDS011;7205;50.864;12.766;2022-08-21T06:43:27;18.03;;;16.23;;
14241;SDS011;7205;50.864;12.766;2022-08-21T06:45:55;19.13;;;17.17;;
14241;SDS011;7205;50.864;12.766;2022-08-21T06:48:22;19.17;;;17.40;;
14241;SDS011;7205;50.864;12.766;2022-08-21T06:50:49;18.00;;;16.30;;
14241;SDS011;7205;50.864;12.766;2022-08-21T06:53:17;19.63;;;17.20;;
14241;SDS011;7205;50.864;12.766;2022-08-21T06:55:46;19.80;;;17.70;;
14241;SDS011;7205;50.864;12.766;2022-08-21T06:58:14;18.97;;;16.90;;
14241;SDS011;7205;50.864;12.766;2022-08-21T07:00:42;19.60;;;17.70;;
14241;SDS011;7205;50.864;12.766;2022-08-21T07:03:17;19.70;;;17.80;;
14241;SDS011;7205;50.864;12.766;2022-08-21T07:05:48;19.80;;;17.77;;
14241;SDS011;7205;50.864;12.766;2022-08-21T07:08:15;22.33;;;17.97;;
14241;SDS011;7205;50.864;12.766;2022-08-21T07:10:43;20.73;;;18.20;;
14241;SDS011;7205;50.864;12.766;2022-08-21T07:13:10;18.97;;;17.00;;
14241;SDS011;7205;50.864;12.766;2022-08-21T07:15:40;19.73;;;17.67;;
14241;SDS011;7205;50.864;12.766;2022-08-21T07:18:07;18.57;;;16.67;;
14241;SDS011;7205;50.864;12.766;2022-08-21T07:20:35;17.50;;;15.70;;
14241;SDS011;7205;50.864;12.766;2022-08-21T07:23:06;16.60;;;15.10;;
14241;SDS011;7205;50.864;12.766;2022-08-21T07:25:35;18.73;;;16.77;;
14241;SDS011;7205;50.864;12.766;2022-08-21T07:28:02;16.07;;;14.47;;
14241;SDS011;7205;50.864;12.766;2022-08-21T07:30:30;14.87;;;13.43;;
14241;SDS011;7205;50.864;12.766;2022-08-21T07:32:57;22.40;;;13.87;;
14241;SDS011;7205;50.864;12.766;2022-08-21T07:35:25;13.97;;;12.70;;
14241;SDS011;7205;50.864;12.766;2022-08-21T07:37:54;15.63;;;14.03;;
14241;SDS011;7205;50.864;12.766;2022-08-21T07:40:21;15.40;;;13.90;;
14241;SDS011;7205;50.864;12.766;2022-08-21T07:42:48;14.30;;;13.00;;
14241;SDS011;7205;50.864;12.766;2022-08-21T07:45:17;13.53;;;12.23;;
14241;SDS011;7205;50.864;12.766;2022-08-21T07:47:45;13.93;;;11.53;;
14241;SDS011;7205;50.864;12.766;2022-08-21T07:50:13;12.70;;;11.60;;
14241;SDS011;7205;50.864;12.766;2022-08-21T07:52:41;13.63;;;11.97;;
14241;SDS011;7205;50.864;12.766;2022-08-21T07:55:11;13.23;;;12.00;;
14241;SDS011;7205;50.864;12.766;2022-08-21T07:57:39;12.50;;;11.33;;
14241;SDS011;7205;50.864;12.766;2022-08-21T08:00:08;12.53;;;11.27;;
14241;SDS011;7205;50.864;12.766;2022-08-21T08:02:40;11.67;;;10.50;;
14241;SDS011;7205;50.864;12.766;2022-08-21T08:05:08;11.10;;;10.03;;
14241;SDS011;7205;50.864;12.766;2022-08-21T08:07:37;10.77;;;9.43;;
14241;SDS011;7205;50.864;12.766;2022-08-21T08:10:04;13.73;;;10.30;;
14241;SDS011;7205;50.864;12.766;2022-08-21T08:12:34;11.10;;;10.17;;
14241;SDS011;7205;50.864;12.766;2022-08-21T08:15:02;10.70;;;9.63;;
14241;SDS011;7205;50.864;12.766;2022-08-21T08:17:30;10.53;;;9.47;;
14241;SDS011;7205;50.864;12.766;2022-08-21T08:19:57;10.67;;;9.63;;
14241;SDS011;7205;50.864;12.766;2022-08-21T08:22:26;10.10;;;9.20;;
14241;SDS011;7205;50.864;12.766;2022-08-21T08:24:53;10.63;;;9.53;;
14241;SDS011;7205;50.864;12.766;2022-08-21T08:27:21;10.23;;;9.30;;
14241;SDS011;7205;50.864;12.766;2022-08-21T08:29:49;10.57;;;9.23;;
14241;SDS011;7205;50.864;12.766;2022-08-21T08:32:17;9.67;;;8.83;;
14241;SDS011;7205;50.864;12.766;2022-08-21T08:34:44;8.47;;;7.80;;
14241;SDS011;7205;50.864;12.766;2022-08-21T08:37:12;9.17;;;8.33;;
14241;SDS011;7205;50.864;12.766;2022-08-21T08:39:39;11.87;;;7.70;;
14241;SDS011;7205;50.864;12.766;2022-08-21T08:42:07;7.90;;;7.23;;
14241;SDS011;7205;50.864;12.766;2022-08-21T08:44:39;7.90;;;7.10;;
14241;SDS011;7205;50.864;12.766;2022-08-21T08:47:08;8.13;;;7.33;;
14241;SDS011;7205;50.864;12.766;2022-08-21T08:49:37;7.50;;;6.90;;
14241;SDS011;7205;50.864;12.766;2022-08-21T08:52:10;7.87;;;7.03;;
14241;SDS011;7205;50.864;12.766;2022-08-21T08:54:58;7.80;;;7.10;;
14241;SDS011;7205;50.864;12.766;2022-08-21T08:57:30;7.50;;;6.73;;
14241;SDS011;7205;50.864;12.766;2022-08-21T08:59:59;7.00;;;6.30;;
14241;SDS011;7205;50.864;12.766;2022-08-21T09:02:29;7.30;;;6.70;;
14241;SDS011;7205;50.864;12.766;2022-08-21T09:04:56;6.23;;;5.67;;
14241;SDS011;7205;50.864;12.766;2022-08-21T09:07:25;6.13;;;5.57;;
14241;SDS011;7205;50.864;12.766;2022-08-21T09:10:06;5.60;;;4.83;;
14241;SDS011;7205;50.864;12.766;2022-08-21T09:12:40;5.47;;;4.20;;
14241;SDS011;7205;50.864;12.766;2022-08-21T09:15:21;7.03;;;4.22;;
14241;SDS011;7205;50.864;12.766;2022-08-21T09:18:07;6.65;;;5.20;;
14241;SDS011;7205;50.864;12.766;2022-08-21T09:20:47;4.75;;;4.40;;
14241;SDS011;7205;50.864;12.766;2022-08-21T09:23:25;5.20;;;4.70;;
14241;SDS011;7205;50.864;12.766;2022-08-21T09:26:00;4.72;;;4.32;;
14241;SDS011;7205;50.864;12.766;2022-08-21T09:28:31;3.60;;;3.13;;
14241;SDS011;7205;50.864;12.766;2022-08-21T09:31:00;3.67;;;2.50;;
14241;SDS011;7205;50.864;12.766;2022-08-21T09:33:29;2.97;;;2.53;;
14241;SDS011;7205;50.864;12.766;2022-08-21T09:35:56;4.32;;;3.08;;
14241;SDS011;7205;50.864;12.766;2022-08-21T09:38:25;4.30;;;2.90;;
14241;SDS011;7205;50.864;12.766;2022-08-21T09:40:56;4.90;;;2.88;;
14241;SDS011;7205;50.864;12.766;2022-08-21T09:43:25;3.47;;;2.90;;
14241;SDS011;7205;50.864;12.766;2022-08-21T09:46:03;7.20;;;3.40;;
14241;SDS011;7205;50.864;12.766;2022-08-21T09:48:40;4.80;;;3.28;;
14241;SDS011;7205;50.864;12.766;2022-08-21T09:51:11;3.77;;;3.47;;
14241;SDS011;7205;50.864;12.766;2022-08-21T09:53:42;2.60;;;2.35;;
14241;SDS011;7205;50.864;12.766;2022-08-21T09:56:19;3.55;;;2.13;;
14241;SDS011;7205;50.864;12.766;2022-08-21T09:59:14;4.20;;;2.33;;
14241;SDS011;7205;50.864;12.766;2022-08-21T10:01:43;2.88;;;2.50;;
14241;SDS011;7205;50.864;12.766;2022-08-21T10:04:13;2.75;;;2.17;;
14241;SDS011;7205;50.864;12.766;2022-08-21T10:06:41;3.88;;;2.10;;
14241;SDS011;7205;50.864;12.766;2022-08-21T10:09:09;3.00;;;1.80;;
14241;SDS011;7205;50.864;12.766;2022-08-21T10:11:37;9.50;;;1.95;;
14241;SDS011;7205;50.864;12.766;2022-08-21T10:14:09;3.70;;;2.33;;
14241;SDS011;7205;50.864;12.766;2022-08-21T10:16:45;5.93;;;2.00;;
14241;SDS011;7205;50.864;12.766;2022-08-21T10:19:26;3.07;;;1.77;;
14241;SDS011;7205;50.864;12.766;2022-08-21T10:21:59;2.47;;;1.93;;
14241;SDS011;7205;50.864;12.766;2022-08-21T10:24:36;3.80;;;2.33;;
14241;SDS011;7205;50.864;12.766;2022-08-21T10:27:11;2.93;;;2.23;;
14241;SDS011;7205;50.864;12.766;2022-08-21T10:29:46;3.55;;;1.92;;
14241;SDS011;7205;50.864;12.766;2022-08-21T10:32:22;4.20;;;1.87;;
14241;SDS011;7205;50.864;12.766;2022-08-21T10:34:59;4.67;;;1.90;;
14241;SDS011;7205;50.864;12.766;2022-08-21T10:37:36;3.47;;;1.80;;
14241;SDS011;7205;50.864;12.766;2022-08-21T10:40:19;4.60;;;1.80;;
14241;SDS011;7205;50.864;12.766;2022-08-21T10:42:54;3.07;;;1.93;;
14241;SDS011;7205;50.864;12.766;2022-08-21T10:45:36;2.80;;;1.75;;
14241;SDS011;7205;50.864;12.766;2022-08-21T10:48:12;3.50;;;1.83;;
14241;SDS011;7205;50.864;12.766;2022-08-21T10:50:55;2.10;;;1.60;;
14241;SDS011;7205;50.864;12.766;2022-08-21T10:53:34;6.47;;;2.08;;
14241;SDS011;7205;50.864;12.766;2022-08-21T10:56:12;3.63;;;1.80;;
14241;SDS011;7205;50.864;12.766;2022-08-21T10:58:45;3.53;;;2.05;;
14241;SDS011;7205;50.864;12.766;2022-08-21T11:01:17;3.30;;;1.98;;
14241;SDS011;7205;50.864;12.766;2022-08-21T11:03:51;4.90;;;2.17;;
14241;SDS011;7205;50.864;12.766;2022-08-21T11:06:23;2.63;;;1.83;;
14241;SDS011;7205;50.864;12.766;2022-08-21T11:08:52;3.20;;;2.00;;
14241;SDS011;7205;50.864;12.766;2022-08-21T11:11:25;5.68;;;1.75;;
14241;SDS011;7205;50.864;12.766;2022-08-21T11:13:56;3.80;;;1.80;;
14241;SDS011;7205;50.864;12.766;2022-08-21T11:16:30;2.25;;;1.60;;
14241;SDS011;7205;50.864;12.766;2022-08-21T11:19:05;2.17;;;1.42;;
14241;SDS011;7205;50.864;12.766;2022-08-21T11:21:42;1.80;;;1.38;;
14241;SDS011;7205;50.864;12.766;2022-08-21T11:24:19;2.58;;;1.58;;
14241;SDS011;7205;50.864;12.766;2022-08-21T11:26:57;5.93;;;1.90;;
14241;SDS011;7205;50.864;12.766;2022-08-21T11:29:31;2.95;;;1.45;;
14241;SDS011;7205;50.864;12.766;2022-08-21T11:32:03;3.22;;;1.50;;
14241;SDS011;7205;50.864;12.766;2022-08-21T11:34:47;4.35;;;1.90;;
14241;SDS011;7205;50.864;12.766;2022-08-21T11:37:29;2.17;;;1.45;;
14241;SDS011;7205;50.864;12.766;2022-08-21T11:40:12;4.45;;;2.10;;
14241;SDS011;7205;50.864;12.766;2022-08-21T11:42:52;2.95;;;1.80;;
14241;SDS011;7205;50.864;12.766;2022-08-21T11:45:28;3.17;;;1.50;;
14241;SDS011;7205;50.864;12.766;2022-08-21T11:48:00;2.45;;;1.52;;
14241;SDS011;7205;50.864;12.766;2022-08-21T11:50:39;6.30;;;2.38;;
14241;SDS011;7205;50.864;12.766;2022-08-21T11:53:11;4.35;;;1.70;;
14241;SDS011;7205;50.864;12.766;2022-08-21T11:55:43;3.10;;;1.92;;
14241;SDS011;7205;50.864;12.766;2022-08-21T11:58:15;7.57;;;1.50;;
14241;SDS011;7205;50.864;12.766;2022-08-21T12:00:47;4.15;;;1.63;;
14241;SDS011;7205;50.864;12.766;2022-08-21T12:03:22;3.85;;;2.00;;
14241;SDS011;7205;50.864;12.766;2022-08-21T12:05:53;4.20;;;1.58;;
14241;SDS011;7205;50.864;12.766;2022-08-21T12:08:30;2.35;;;1.70;;
14241;SDS011;7205;50.864;12.766;2022-08-21T12:11:00;5.80;;;2.25;;
14241;SDS011;7205;50.864;12.766;2022-08-21T12:13:30;3.30;;;1.90;;
14241;SDS011;7205;50.864;12.766;2022-08-21T12:16:05;5.18;;;2.20;;
14241;SDS011;7205;50.864;12.766;2022-08-21T12:18:36;3.70;;;2.10;;
14241;SDS011;7205;50.864;12.766;2022-08-21T12:21:05;3.28;;;2.00;;
14241;SDS011;7205;50.864;12.766;2022-08-21T12:23:57;4.38;;;2.25;;
14241;SDS011;7205;50.864;12.766;2022-08-21T12:26:29;4.15;;;1.92;;
14241;SDS011;7205;50.864;12.766;2022-08-21T12:29:10;2.95;;;1.80;;
14241;SDS011;7205;50.864;12.766;2022-08-21T12:34:46;3.20;;;2.08;;
14241;SDS011;7205;50.864;12.766;2022-08-21T12:37:22;4.90;;;1.90;;
14241;SDS011;7205;50.864;12.766;2022-08-21T12:39:59;2.40;;;1.70;;
14241;SDS011;7205;50.864;12.766;2022-08-21T12:42:31;4.28;;;2.00;;
14241;SDS011;7205;50.864;12.766;2022-08-21T12:45:05;4.90;;;2.00;;
14241;SDS011;7205;50.864;12.766;2022-08-21T12:47:43;2.55;;;1.70;;
14241;SDS011;7205;50.864;12.766;2022-08-21T12:50:16;4.15;;;2.20;;
14241;SDS011;7205;50.864;12.766;2022-08-21T12:52:48;3.00;;;1.90;;
14241;SDS011;7205;50.864;12.766;2022-08-21T12:55:31;1.70;;;1.60;;
14241;SDS011;7205;50.864;12.766;2022-08-21T12:57:59;3.65;;;1.70;;
14241;SDS011;7205;50.864;12.766;2022-08-21T13:00:27;5.15;;;2.40;;
14241;SDS011;7205;50.864;12.766;2022-08-21T13:02:55;3.47;;;2.42;;
14241;SDS011;7205;50.864;12.766;2022-08-21T13:05:30;2.45;;;2.25;;
14241;SDS011;7205;50.864;12.766;2022-08-21T13:07:59;4.07;;;2.20;;
14241;SDS011;7205;50.864;12.766;2022-08-21T13:10:32;3.03;;;2.10;;
14241;SDS011;7205;50.864;12.766;2022-08-21T13:13:02;7.10;;;2.13;;
14241;SDS011;7205;50.864;12.766;2022-08-21T13:15:31;4.90;;;2.10;;
14241;SDS011;7205;50.864;12.766;2022-08-21T13:18:00;2.75;;;2.38;;
14241;SDS011;7205;50.864;12.766;2022-08-21T13:20:30;3.60;;;2.05;;
14241;SDS011;7205;50.864;12.766;2022-08-21T13:23:01;4.38;;;2.00;;
14241;SDS011;7205;50.864;12.766;2022-08-21T13:25:29;3.70;;;1.98;;
14241;SDS011;7205;50.864;12.766;2022-08-21T13:28:06;3.40;;;1.83;;
14241;SDS011;7205;50.864;12.766;2022-08-21T13:30:38;3.20;;;2.08;;
14241;SDS011;7205;50.864;12.766;2022-08-21T13:33:09;4.47;;;2.10;;
14241;SDS011;7205;50.864;12.766;2022-08-21T13:35:45;3.50;;;2.10;;
14241;SDS011;7205;50.864;12.766;2022-08-21T13:38:14;4.30;;;2.28;;
14241;SDS011;7205;50.864;12.766;2022-08-21T13:40:44;4.53;;;2.15;;
14241;SDS011;7205;50.864;12.766;2022-08-21T13:43:17;2.72;;;2.47;;
14241;SDS011;7205;50.864;12.766;2022-08-21T13:45:48;2.92;;;1.92;;
14241;SDS011;7205;50.864;12.766;2022-08-21T13:48:17;5.35;;;2.70;;
14241;SDS011;7205;50.864;12.766;2022-08-21T13:50:44;3.95;;;2.47;;
14241;SDS011;7205;50.864;12.766;2022-08-21T13:53:20;4.03;;;2.40;;
14241;SDS011;7205;50.864;12.766;2022-08-21T13:55:49;4.70;;;2.10;;
14241;SDS011;7205;50.864;12.766;2022-08-21T13:58:25;2.30;;;2.08;;
14241;SDS011;7205;50.864;12.766;2022-08-21T14:00:53;4.30;;;2.00;;
14241;SDS011;7205;50.864;12.766;2022-08-21T14:03:35;3.95;;;2.08;;
14241;SDS011;7205;50.864;12.766;2022-08-21T14:06:10;3.38;;;1.95;;
14241;SDS011;7205;50.864;12.766;2022-08-21T14:08:39;7.47;;;2.80;;
14241;SDS011;7205;50.864;12.766;2022-08-21T14:11:09;2.78;;;2.58;;
14241;SDS011;7205;50.864;12.766;2022-08-21T14:13:41;2.95;;;2.60;;
14241;SDS011;7205;50.864;12.766;2022-08-21T14:16:12;2.80;;;2.40;;
14241;SDS011;7205;50.864;12.766;2022-08-21T14:18:43;3.00;;;2.20;;
14241;SDS011;7205;50.864;12.766;2022-08-21T14:21:12;5.35;;;1.92;;
14241;SDS011;7205;50.864;12.766;2022-08-21T14:23:40;4.93;;;2.05;;
14241;SDS011;7205;50.864;12.766;2022-08-21T14:26:07;4.38;;;2.65;;
14241;SDS011;7205;50.864;12.766;2022-08-21T14:28:39;5.28;;;2.35;;
14241;SDS011;7205;50.864;12.766;2022-08-21T14:31:12;2.20;;;2.00;;
14241;SDS011;7205;50.864;12.766;2022-08-21T14:33:41;5.32;;;1.85;;
14241;SDS011;7205;50.864;12.766;2022-08-21T14:36:08;4.15;;;1.95;;
14241;SDS011;7205;50.864;12.766;2022-08-21T14:38:36;3.13;;;1.98;;
14241;SDS011;7205;50.864;12.766;2022-08-21T14:41:08;2.60;;;2.08;;
14241;SDS011;7205;50.864;12.766;2022-08-21T14:43:43;3.10;;;2.35;;
14241;SDS011;7205;50.864;12.766;2022-08-21T14:46:12;6.40;;;2.50;;
14241;SDS011;7205;50.864;12.766;2022-08-21T14:48:40;3.20;;;2.10;;
14241;SDS011;7205;50.864;12.766;2022-08-21T14:51:06;2.13;;;1.88;;
14241;SDS011;7205;50.864;12.766;2022-08-21T14:53:33;2.05;;;1.80;;